Time;durP1;ratioP1;P1;durP2;ratioP2;P2;SDS_P1;SDS_P2;PMS_P1;PMS_P2;Temp;Humidity;BMP_temperature;BMP_pressure;BME280_temperature;BME280_humidity;BME280_pressure;Samples;Min_cycle;Max_cycle;Signal;HPM_P1;HPM_P2
2023/12/14 05:54:32;;;;;;;;;;;;;;;0.46;100.00;99278.05;109896;1272;22466;-47
2023/12/14 05:56:58;;;;;;;;;;;;;;;0.49;100.00;99281.19;110013;1271;22526;-47
2023/12/14 05:59:25;;;;;;;;;;;;;;;0.49;100.00;99280.68;110002;1266;22951;-54
2023/12/14 06:01:56;;;;;;;;;;;;;;;0.49;100.00;99273.14;109974;1272;22504;-47
2023/12/14 06:04:26;;;;;;;;;;;;;;;0.51;100.00;99279.20;109701;1268;22691;-53
2023/12/14 06:06:56;;;;;;;;;;;;;;;0.54;100.00;99270.49;108785;1275;22544;-53
2023/12/14 06:09:29;;;;;;;;;;;;;;;0.54;100.00;99267.76;109649;1277;22615;-53
2023/12/14 06:11:55;;;;;;;;;;;;;;;0.56;100.00;99258.02;109240;1278;22558;-53
2023/12/14 06:14:22;;;;;;;;;;;;;;;0.58;100.00;99264.42;109965;1265;22441;-53
2023/12/14 06:16:50;;;;;;;;;;;;;;;0.61;100.00;99259.17;110003;1262;22549;-53
2023/12/14 06:19:17;;;;;;;;;;;;;;;0.63;100.00;99255.59;109896;1272;22443;-55
2023/12/14 06:21:43;;;;;;;;;;;;;;;0.65;100.00;99250.86;109724;1272;23166;-48
2023/12/14 06:24:11;;;;;;;;;;;;;;;0.68;100.00;99249.20;109035;1272;23109;-47
2023/12/14 06:26:43;;;;;;;;;;;;;;;0.72;100.00;99245.17;109176;1279;22830;-47
2023/12/14 06:29:10;;;;;;;;;;;;;;;0.75;100.00;99251.95;109514;1272;23481;-55
2023/12/14 06:31:41;;;;;;;;;;;;;;;0.77;100.00;99249.06;109237;1273;22501;-46
2023/12/14 06:34:07;;;;;;;;;;;;;;;0.76;100.00;99243.73;108872;1273;26503;-48
2023/12/14 06:36:38;;;;;;;;;;;;;;;0.77;100.00;99239.64;109485;1272;22888;-54
2023/12/14 06:39:10;;;;;;;;;;;;;;;0.80;100.00;99233.16;109279;1272;22509;-46
2023/12/14 06:41:47;;;;;;;;;;;;;;;0.83;100.00;99235.63;109504;1273;22877;-47
2023/12/14 06:44:18;;;;;;;;;;;;;;;0.85;100.00;99234.30;109484;1273;22575;-53
2023/12/14 06:46:47;;;;;;;;;;;;;;;0.88;100.00;99237.81;109629;1275;22449;-55
2023/12/14 06:49:14;;;;;;;;;;;;;;;0.90;100.00;99238.36;109872;1273;22526;-48
2023/12/14 06:51:41;;;;;;;;;;;;;;;0.92;100.00;99240.29;109674;1276;22593;-55
2023/12/14 06:54:08;;;;;;;;;;;;;;;0.94;100.00;99243.09;108622;1269;23101;-55
2023/12/14 06:56:38;;;;;;;;;;;;;;;0.96;100.00;99237.11;109545;1261;23307;-48
2023/12/14 06:59:04;;;;;;;;;;;;;;;0.99;100.00;99228.77;109188;1268;24321;-54
2023/12/14 07:01:31;;;;;;;;;;;;;;;1.02;100.00;99230.72;109778;1272;22615;-47
2023/12/14 07:03:58;;;;;;;;;;;;;;;1.05;100.00;99240.92;109590;1276;23398;-47
2023/12/14 07:06:30;;;;;;;;;;;;;;;1.09;100.00;99226.55;109473;1262;22567;-48
2023/12/14 07:09:02;;;;;;;;;;;;;;;1.11;100.00;99239.16;109106;1274;24085;-51
2023/12/14 07:11:34;;;;;;;;;;;;;;;1.13;100.00;99233.70;108755;1275;22624;-49
2023/12/14 07:14:17;;;;;;;;;;;;;;;1.15;100.00;99229.45;108294;1276;22522;-49
2023/12/14 07:22:05;;;;;;;;;;;;;;;1.23;100.00;99221.89;108728;1272;22989;-55
2023/12/14 07:25:35;;;;;;;;;;;;;;;1.25;100.00;99220.20;109052;1276;23206;-48
2023/12/14 07:28:58;;;;;;;;;;;;;;;1.26;100.00;99217.48;108268;1277;22563;-48
2023/12/14 07:31:34;;;;;;;;;;;;;;;1.28;100.00;99210.14;109371;1280;23246;-48
2023/12/14 07:34:20;;;;;;;;;;;;;;;1.30;100.00;99210.34;108933;1275;23324;-54
2023/12/14 07:37:18;;;;;;;;;;;;;;;1.31;100.00;99200.91;109392;1270;22648;-54
2023/12/14 07:40:03;;;;;;;;;;;;;;;1.32;100.00;99200.92;109667;1277;22527;-55
2023/12/14 07:42:46;;;;;;;;;;;;;;;1.33;100.00;99200.27;108663;1273;22889;-54
2023/12/14 07:45:17;;;;;;;;;;;;;;;1.35;100.00;99203.74;109279;1281;28182;-54
2023/12/14 07:47:45;;;;;;;;;;;;;;;1.37;100.00;99189.49;108448;1277;22511;-48
2023/12/14 07:50:15;;;;;;;;;;;;;;;1.38;100.00;99200.50;109427;1275;22522;-55
2023/12/14 07:52:42;;;;;;;;;;;;;;;1.38;100.00;99207.73;109268;1274;23370;-54
2023/12/14 07:55:08;;;;;;;;;;;;;;;1.39;100.00;99203.80;108756;1273;22520;-53
2023/12/14 07:57:36;;;;;;;;;;;;;;;1.41;100.00;99210.73;109770;1277;22473;-47
2023/12/14 08:00:03;;;;;;;;;;;;;;;1.42;100.00;99192.01;109608;1279;22582;-54
2023/12/14 08:02:33;;;;;;;;;;;;;;;1.45;100.00;99195.66;109869;1272;22432;-49
2023/12/14 08:05:03;;;;;;;;;;;;;;;1.46;100.00;99198.10;108868;1281;22659;-55
2023/12/14 08:07:31;;;;;;;;;;;;;;;1.45;100.00;99188.98;109219;1273;23500;-49
2023/12/14 08:09:57;;;;;;;;;;;;;;;1.46;100.00;99182.30;108996;1266;22518;-53
2023/12/14 08:12:24;;;;;;;;;;;;;;;1.46;100.00;99179.39;109481;1276;23705;-53
2023/12/14 08:14:54;;;;;;;;;;;;;;;1.47;100.00;99179.05;108891;1268;22510;-55
2023/12/14 08:17:24;;;;;;;;;;;;;;;1.48;100.00;99180.27;108672;1273;23522;-58
2023/12/14 08:20:07;;;;;;;;;;;;;;;1.48;100.00;99178.04;108600;1279;22582;-49
2023/12/14 08:23:14;;;;;;;;;;;;;;;1.50;100.00;99178.92;109129;1281;23366;-54
2023/12/14 08:25:46;;;;;;;;;;;;;;;1.52;100.00;99183.27;109387;1276;22979;-54
2023/12/14 08:28:13;;;;;;;;;;;;;;;1.54;100.00;99175.05;109612;1272;22443;-54
2023/12/14 08:30:40;;;;;;;;;;;;;;;1.57;100.00;99170.14;109417;1281;22606;-47
2023/12/14 08:33:06;;;;;;;;;;;;;;;1.61;100.00;99160.91;109742;1270;22932;-49
2023/12/14 08:35:33;;;;;;;;;;;;;;;1.68;100.00;99160.69;109707;1277;22857;-49
2023/12/14 08:38:24;;;;;;;;;;;;;;;1.73;100.00;99150.29;109085;1276;23515;-48
2023/12/14 08:41:12;;;;;;;;;;;;;;;1.80;100.00;99147.67;109700;1278;23203;-52
2023/12/14 08:43:39;;;;;;;;;;;;;;;1.85;100.00;99139.84;109738;1279;22487;-52
2023/12/14 08:46:06;;;;;;;;;;;;;;;1.90;100.00;99129.06;109652;1278;22532;-53
2023/12/14 08:48:35;;;;;;;;;;;;;;;1.93;100.00;99110.90;109138;1276;23303;-53
2023/12/14 08:51:06;;;;;;;;;;;;;;;1.99;100.00;99113.40;108950;1280;22526;-49
2023/12/14 08:53:33;;;;;;;;;;;;;;;2.03;100.00;99116.90;108563;1280;22590;-53
2023/12/14 08:56:02;;;;;;;;;;;;;;;2.06;100.00;99118.66;108747;1276;22723;-54
2023/12/14 08:58:29;;;;;;;;;;;;;;;2.09;100.00;99115.80;109164;1278;22992;-47
2023/12/14 09:00:56;;;;;;;;;;;;;;;2.14;100.00;99113.63;109141;1276;22587;-52
2023/12/14 09:03:23;;;;;;;;;;;;;;;2.19;100.00;99108.86;109480;1267;23189;-54
2023/12/14 09:05:52;;;;;;;;;;;;;;;2.21;100.00;99101.86;108952;1277;22576;-48
2023/12/14 09:08:25;;;;;;;;;;;;;;;2.27;100.00;99094.02;108853;1267;23191;-53
2023/12/14 09:10:59;;;;;;;;;;;;;;;2.32;100.00;99083.59;109675;1277;23267;-47
2023/12/14 09:13:27;;;;;;;;;;;;;;;2.37;100.00;99094.16;109450;1277;23066;-55
2023/12/14 09:16:43;;;;;;;;;;;;;;;2.41;100.00;99091.46;109629;1280;22531;-48
2023/12/14 09:19:50;;;;;;;;;;;;;;;2.44;100.00;99084.29;109796;1281;22463;-48
2023/12/14 09:35:27;;;;;;;;;;;;;;;2.67;100.00;99080.27;109776;1278;22447;-47
2023/12/14 09:46:07;;;;;;;;;;;;;;;2.82;100.00;99058.91;109105;1277;22477;-48
2023/12/14 10:00:33;;;;;;;;;;;;;;;2.93;100.00;99054.91;109213;1275;22532;-48
2023/12/14 10:04:02;;;;;;;;;;;;;;;2.97;100.00;99053.25;108743;1270;22524;-54
2023/12/14 10:07:45;;;;;;;;;;;;;;;3.05;100.00;99044.88;108975;1276;22508;-49
2023/12/14 10:10:52;;;;;;;;;;;;;;;3.10;100.00;99046.98;108576;1266;22510;-53
2023/12/14 10:14:39;;;;;;;;;;;;;;;3.17;100.00;99036.55;108484;1276;24523;-49
2023/12/14 10:18:39;;;;;;;;;;;;;;;3.27;100.00;99016.99;109243;1277;24202;-47
2023/12/14 10:25:49;;;;;;;;;;;;;;;3.48;100.00;99016.14;109337;1276;22638;-47
2023/12/14 10:28:30;;;;;;;;;;;;;;;3.57;100.00;99014.84;109707;1277;23351;-51
2023/12/14 10:31:28;;;;;;;;;;;;;;;3.67;100.00;99022.67;109522;1273;243324;-53
2023/12/14 10:41:07;;;;;;;;;;;;;;;4.11;100.00;98983.79;109383;1281;22514;-48
2023/12/14 10:44:54;;;;;;;;;;;;;;;4.30;100.00;98973.86;109852;1280;22512;-47
2023/12/14 10:52:00;;;;;;;;;;;;;;;4.65;100.00;98956.71;109735;1275;22419;-48
2023/12/14 10:54:45;;;;;;;;;;;;;;;4.75;100.00;98962.61;109665;1276;22445;-47
2023/12/14 10:57:12;;;;;;;;;;;;;;;4.82;100.00;98955.89;109790;1277;22488;-48
2023/12/14 10:59:41;;;;;;;;;;;;;;;4.87;100.00;98956.23;108751;1277;22540;-54
2023/12/14 11:02:14;;;;;;;;;;;;;;;4.92;100.00;98948.63;109141;1275;22507;-47
2023/12/14 11:04:58;;;;;;;;;;;;;;;4.96;100.00;98943.80;109776;1277;22545;-55
2023/12/14 11:07:57;;;;;;;;;;;;;;;5.02;100.00;98939.66;109665;1277;23358;-50
2023/12/14 11:10:31;;;;;;;;;;;;;;;5.07;100.00;98942.96;109005;1283;22569;-48
2023/12/14 11:13:13;;;;;;;;;;;;;;;5.09;100.00;98945.20;108378;1283;23378;-47
2023/12/14 11:15:50;;;;;;;;;;;;;;;5.12;100.00;98941.05;108610;1282;23535;-48
2023/12/14 11:18:25;;;;;;;;;;;;;;;5.15;100.00;98933.80;108824;1282;24892;-48
2023/12/14 11:20:55;;;;;;;;;;;;;;;5.19;100.00;98939.52;107761;1282;23307;-54
2023/12/14 11:23:25;;;;;;;;;;;;;;;5.21;100.00;98945.73;108906;1283;22895;-53
2023/12/14 11:25:53;;;;;;;;;;;;;;;5.24;100.00;98940.55;108659;1283;24265;-47
2023/12/14 11:28:37;;;;;;;;;;;;;;;5.29;100.00;98950.05;109088;1281;22608;-54
2023/12/14 11:31:09;;;;;;;;;;;;;;;5.32;100.00;98940.19;107644;1283;22549;-47
2023/12/14 11:33:42;;;;;;;;;;;;;;;5.36;100.00;98938.11;109012;1283;22569;-54
2023/12/14 11:36:12;;;;;;;;;;;;;;;5.39;100.00;98936.02;108738;1287;22526;-53
2023/12/14 11:38:50;;;;;;;;;;;;;;;5.42;100.00;98934.65;108280;1287;22533;-48
2023/12/14 11:41:20;;;;;;;;;;;;;;;5.45;100.00;98928.08;108742;1289;22933;-59
2023/12/14 11:43:49;;;;;;;;;;;;;;;5.49;100.00;98931.18;107616;1286;22513;-48
2023/12/14 11:46:17;;;;;;;;;;;;;;;5.52;100.00;98925.83;108422;1280;22660;-54
2023/12/14 11:48:48;;;;;;;;;;;;;;;5.55;100.00;98915.77;107988;1281;22508;-46
2023/12/14 11:51:18;;;;;;;;;;;;;;;5.58;100.00;98917.34;108403;1281;22542;-53
2023/12/14 11:53:49;;;;;;;;;;;;;;;5.60;100.00;98917.15;107947;1277;22586;-55
2023/12/14 11:56:25;;;;;;;;;;;;;;;5.64;100.00;98925.80;108647;1277;22542;-49
2023/12/14 11:59:01;;;;;;;;;;;;;;;5.69;100.00;98929.59;108221;1277;22596;-54
2023/12/14 12:01:28;;;;;;;;;;;;;;;5.71;100.00;98931.66;108599;1275;23314;-54
2023/12/14 12:03:55;;;;;;;;;;;;;;;5.75;100.00;98933.39;109600;1275;22428;-48
2023/12/14 12:06:23;;;;;;;;;;;;;;;5.79;100.00;98929.58;108918;1277;22581;-47
2023/12/14 12:08:51;;;;;;;;;;;;;;;5.81;100.00;98926.46;109355;1276;23276;-47
2023/12/14 12:11:18;;;;;;;;;;;;;;;5.83;100.00;98925.58;109457;1276;23303;-55
2023/12/14 12:13:50;;;;;;;;;;;;;;;5.85;100.00;98930.08;109651;1275;22876;-53
2023/12/14 12:16:16;;;;;;;;;;;;;;;5.89;100.00;98930.58;109704;1281;23626;-47
2023/12/14 12:18:43;;;;;;;;;;;;;;;5.92;100.00;98920.06;109690;1281;23525;-46
2023/12/14 12:21:11;;;;;;;;;;;;;;;5.94;100.00;98916.75;109674;1281;22430;-49
2023/12/14 12:23:38;;;;;;;;;;;;;;;5.97;100.00;98921.95;109635;1280;22936;-48
2023/12/14 12:26:05;;;;;;;;;;;;;;;6.00;100.00;98913.10;109668;1278;22565;-48
2023/12/14 12:28:31;;;;;;;;;;;;;;;6.04;100.00;98911.70;109752;1281;23173;-47
2023/12/14 12:30:59;;;;;;;;;;;;;;;6.07;100.00;98917.58;109779;1274;23403;-48
2023/12/14 12:33:26;;;;;;;;;;;;;;;6.10;100.00;98911.16;109745;1281;22531;-47
2023/12/14 12:35:54;;;;;;;;;;;;;;;6.12;100.00;98916.52;109767;1281;22450;-48
2023/12/14 12:38:21;;;;;;;;;;;;;;;6.15;100.00;98916.52;109818;1281;22450;-54
2023/12/14 12:40:48;;;;;;;;;;;;;;;6.18;100.00;98919.27;109862;1281;22414;-47
2023/12/14 12:43:15;;;;;;;;;;;;;;;6.20;100.00;98915.61;109838;1281;22438;-48
2023/12/14 12:45:42;;;;;;;;;;;;;;;6.23;100.00;98906.61;109537;1278;23159;-48
2023/12/14 12:48:10;;;;;;;;;;;;;;;6.25;100.00;98906.77;109723;1278;22514;-47
2023/12/14 12:50:37;;;;;;;;;;;;;;;6.27;100.00;98908.50;108161;1275;23044;-55
2023/12/14 12:53:04;;;;;;;;;;;;;;;6.29;100.00;98908.66;108962;1270;22802;-54
2023/12/14 12:55:32;;;;;;;;;;;;;;;6.32;100.00;98902.41;107933;1281;22595;-54
2023/12/14 12:58:04;;;;;;;;;;;;;;;6.35;100.00;98877.45;108207;1275;22667;-46
2023/12/14 13:00:32;;;;;;;;;;;;;;;6.38;100.00;98873.28;109648;1278;22551;-52
2023/12/14 13:03:01;;;;;;;;;;;;;;;6.40;100.00;98886.61;109645;1275;23114;-54
2023/12/14 13:05:28;;;;;;;;;;;;;;;6.42;100.00;98900.79;109640;1281;22431;-54
2023/12/14 13:07:57;;;;;;;;;;;;;;;6.45;100.00;98913.60;109715;1280;22633;-54
2023/12/14 13:10:26;;;;;;;;;;;;;;;6.49;100.00;98918.24;109740;1281;22471;-55
2023/12/14 13:12:58;;;;;;;;;;;;;;;6.51;100.00;98917.73;109782;1281;22423;-54
2023/12/14 13:15:28;;;;;;;;;;;;;;;6.54;100.00;98926.54;109901;1274;22427;-55
2023/12/14 13:17:55;;;;;;;;;;;;;;;6.56;100.00;98931.55;109787;1281;22436;-55
2023/12/14 13:20:23;;;;;;;;;;;;;;;6.58;100.00;98920.63;109801;1281;23312;-55
2023/12/14 13:22:50;;;;;;;;;;;;;;;6.60;100.00;98915.76;109781;1275;22435;-55
2023/12/14 13:25:17;;;;;;;;;;;;;;;6.60;100.00;98917.31;109789;1281;22525;-53
2023/12/14 13:27:44;;;;;;;;;;;;;;;6.62;100.00;98909.70;109838;1281;22940;-54
2023/12/14 13:30:16;;;;;;;;;;;;;;;6.65;100.00;98922.67;109643;1277;23270;-54
2023/12/14 13:32:43;;;;;;;;;;;;;;;6.68;100.00;98907.75;109562;1278;22503;-53
2023/12/14 13:35:10;;;;;;;;;;;;;;;6.70;100.00;98904.44;109865;1274;22448;-54
2023/12/14 13:37:36;;;;;;;;;;;;;;;6.72;100.00;98903.20;109870;1280;23150;-54
2023/12/14 13:40:04;;;;;;;;;;;;;;;6.72;100.00;98900.27;109893;1281;23393;-54
2023/12/14 13:42:31;;;;;;;;;;;;;;;6.73;100.00;98909.45;109397;1281;22511;-54
2023/12/14 13:44:58;;;;;;;;;;;;;;;6.74;100.00;98916.90;109928;1281;23219;-54
2023/12/14 13:47:24;;;;;;;;;;;;;;;6.74;100.00;98906.50;109068;1281;23353;-47
2023/12/14 13:49:51;;;;;;;;;;;;;;;6.74;100.00;98909.45;109911;1281;22528;-48
2023/12/14 13:52:18;;;;;;;;;;;;;;;6.73;100.00;98913.45;108840;1281;22635;-49
2023/12/14 13:54:45;;;;;;;;;;;;;;;6.72;100.00;98902.00;108865;1274;22494;-47
2023/12/14 13:57:12;;;;;;;;;;;;;;;6.72;100.00;98902.69;109890;1281;22388;-47
2023/12/14 13:59:38;;;;;;;;;;;;;;;6.73;100.00;98905.98;107367;1281;22525;-46
2023/12/14 14:02:05;;;;;;;;;;;;;;;6.74;100.00;98897.32;108703;1281;22895;-53
2023/12/14 14:04:32;;;;;;;;;;;;;;;6.75;100.00;98899.55;109685;1281;23310;-54
2023/12/14 14:06:59;;;;;;;;;;;;;;;6.76;100.00;98901.11;108987;1281;22573;-47
2023/12/14 14:09:26;;;;;;;;;;;;;;;6.76;100.00;98897.98;107895;1281;22499;-47
2023/12/14 14:11:53;;;;;;;;;;;;;;;6.79;100.00;98904.73;106802;1262;24434;-48
2023/12/14 14:14:23;;;;;;;;;;;;;;;6.80;100.00;98908.55;109363;1281;22527;-54
2023/12/14 14:16:49;;;;;;;;;;;;;;;6.80;100.00;98915.83;108151;1281;23376;-54
2023/12/14 14:19:16;;;;;;;;;;;;;;;6.80;100.00;98922.06;108905;1275;22637;-54
2023/12/14 14:21:43;;;;;;;;;;;;;;;6.79;100.00;98928.83;109071;1281;22503;-54
2023/12/14 14:24:10;;;;;;;;;;;;;;;6.80;100.00;98931.23;109132;1281;22567;-55
2023/12/14 14:26:37;;;;;;;;;;;;;;;6.79;100.00;98923.10;108099;1281;24270;-54
2023/12/14 14:29:03;;;;;;;;;;;;;;;6.79;100.00;98920.66;108779;1281;23179;-54
2023/12/14 14:31:32;;;;;;;;;;;;;;;6.80;100.00;98926.05;108994;1281;22504;-48
2023/12/14 14:34:00;;;;;;;;;;;;;;;6.81;100.00;98932.79;109911;1281;22617;-48
2023/12/14 14:36:26;;;;;;;;;;;;;;;6.82;100.00;98938.67;109276;1281;22604;-48
2023/12/14 14:38:54;;;;;;;;;;;;;;;6.83;100.00;98937.80;107656;1281;22634;-47
2023/12/14 14:41:21;;;;;;;;;;;;;;;6.83;100.00;98928.95;106770;1281;25334;-49
2023/12/14 14:43:49;;;;;;;;;;;;;;;6.84;100.00;98931.20;108852;1281;23008;-54
2023/12/14 14:46:15;;;;;;;;;;;;;;;6.85;100.00;98929.83;109062;1281;23770;-58
2023/12/14 14:48:43;;;;;;;;;;;;;;;6.86;100.00;98924.63;107071;1281;24200;-54
2023/12/14 14:51:10;;;;;;;;;;;;;;;6.87;100.00;98928.25;107435;1281;24216;-55
2023/12/14 14:53:37;;;;;;;;;;;;;;;6.87;100.00;98933.09;107121;1281;25200;-56
2023/12/14 14:56:04;;;;;;;;;;;;;;;6.88;100.00;98929.09;107459;1282;22540;-54
2023/12/14 14:58:32;;;;;;;;;;;;;;;6.89;100.00;98932.73;107212;1281;22540;-46
2023/12/14 15:01:01;;;;;;;;;;;;;;;6.90;100.00;98933.96;106937;1281;23194;-49
2023/12/14 15:03:28;;;;;;;;;;;;;;;6.90;100.00;98935.16;106930;1281;25304;-50
2023/12/14 15:05:55;;;;;;;;;;;;;;;6.91;100.00;98932.90;107421;1281;22520;-57
2023/12/14 15:08:22;;;;;;;;;;;;;;;6.92;100.00;98929.25;107199;1278;22561;-47
2023/12/14 15:10:49;;;;;;;;;;;;;;;6.93;100.00;98919.88;107333;1281;25469;-54
2023/12/14 15:13:17;;;;;;;;;;;;;;;6.95;100.00;98920.73;107226;1281;25321;-49
2023/12/14 15:15:44;;;;;;;;;;;;;;;6.99;100.00;98926.42;106614;1281;25316;-47
2023/12/14 15:18:11;;;;;;;;;;;;;;;7.02;100.00;98926.40;106743;1281;22543;-49
2023/12/14 15:20:40;;;;;;;;;;;;;;;7.04;100.00;98934.02;106885;1281;25243;-55
